Time;durP1;ratioP1;P1;durP2;ratioP2;P2;SDS_P1;SDS_P2;PMS_P1;PMS_P2;Temp;Humidity;BMP_temperature;BMP_pressure;BME280_temperature;BME280_humidity;BME280_pressure;Samples;Min_cycle;Max_cycle;Signal;HPM_P1;HPM_P2
2022/01/03 00:01:49;;;;;;;35.67;9.03;;;;;;;;;;5053414;28;20357;-72
2022/01/03 00:04:16;;;;;;;33.80;8.87;;;;;;;;;;5059863;28;20214;-72
2022/01/03 00:06:42;;;;;;;41.27;10.00;;;;;;;;;;5059787;28;20294;-72
2022/01/03 00:09:08;;;;;;;31.30;8.70;;;;;;;;;;5055136;28;20190;-71
2022/01/03 00:11:35;;;;;;;31.23;8.23;;;;;;;;;;5040405;28;20702;-72
2022/01/03 00:14:01;;;;;;;27.57;7.80;;;;;;;;;;5057871;28;20195;-72
2022/01/03 00:16:27;;;;;;;28.77;7.90;;;;;;;;;;5057273;28;20612;-72
2022/01/03 00:18:54;;;;;;;24.87;7.27;;;;;;;;;;5057452;28;20240;-71
2022/01/03 00:21:21;;;;;;;51.07;12.27;;;;;;;;;;5059811;28;20175;-71
2022/01/03 00:23:53;;;;;;;30.80;8.37;;;;;;;;;;5054880;28;20277;-72
2022/01/03 00:26:26;;;;;;;27.47;7.77;;;;;;;;;;5056760;28;21313;-72
2022/01/03 00:29:00;;;;;;;41.70;10.30;;;;;;;;;;5058634;28;20258;-71
2022/01/03 00:31:37;;;;;;;35.77;8.80;;;;;;;;;;5039655;28;20202;-72
2022/01/03 00:34:04;;;;;;;39.03;10.00;;;;;;;;;;5058294;28;20260;-72
2022/01/03 00:36:30;;;;;;;14.73;5.10;;;;;;;;;;5057330;28;20175;-71
2022/01/03 00:38:56;;;;;;;27.40;7.60;;;;;;;;;;5041257;28;20187;-72
2022/01/03 00:41:23;;;;;;;14.83;5.23;;;;;;;;;;5052157;28;20205;-72
2022/01/03 00:43:51;;;;;;;33.40;8.80;;;;;;;;;;5059735;28;20232;-72
2022/01/03 00:46:17;;;;;;;22.30;6.37;;;;;;;;;;5042449;28;20187;-72
2022/01/03 00:48:43;;;;;;;38.73;9.83;;;;;;;;;;5039312;28;20633;-72
2022/01/03 00:51:10;;;;;;;29.77;8.17;;;;;;;;;;5053840;28;20191;-72
2022/01/03 00:53:36;;;;;;;28.60;7.90;;;;;;;;;;5047592;28;20570;-72
2022/01/03 00:56:04;;;;;;;32.30;8.37;;;;;;;;;;5057159;28;20217;-72
2022/01/03 00:58:35;;;;;;;14.57;4.93;;;;;;;;;;5060025;28;20221;-71
2022/01/03 01:01:01;;;;;;;33.83;8.50;;;;;;;;;;5051609;28;20787;-72
2022/01/03 01:03:34;;;;;;;31.70;8.37;;;;;;;;;;5039986;28;20230;-72
2022/01/03 01:06:01;;;;;;;34.63;8.77;;;;;;;;;;5038945;28;20199;-72
2022/01/03 01:08:28;;;;;;;24.20;6.97;;;;;;;;;;5029624;28;20278;-72
2022/01/03 01:10:56;;;;;;;34.53;8.83;;;;;;;;;;5055623;28;20238;-72
2022/01/03 01:13:22;;;;;;;36.40;9.20;;;;;;;;;;5060401;28;20570;-72
2022/01/03 01:15:48;;;;;;;39.03;9.70;;;;;;;;;;5038173;28;20182;-72
2022/01/03 01:18:14;;;;;;;43.27;10.37;;;;;;;;;;5057650;28;20697;-72
2022/01/03 01:20:40;;;;;;;33.17;8.57;;;;;;;;;;5057886;28;20206;-72
2022/01/03 01:23:07;;;;;;;32.60;8.90;;;;;;;;;;5050659;28;20204;-72
2022/01/03 01:28:04;;;;;;;21.33;6.50;;;;;;;;;;5059078;28;20282;-72
2022/01/03 01:30:30;;;;;;;39.37;9.67;;;;;;;;;;5055034;28;20260;-72
2022/01/03 01:33:01;;;;;;;51.07;11.63;;;;;;;;;;5051618;28;20223;-72
2022/01/03 01:35:30;;;;;;;30.80;8.23;;;;;;;;;;5056981;28;21946;-72
2022/01/03 01:37:58;;;;;;;23.00;6.97;;;;;;;;;;5051169;28;20179;-71
2022/01/03 01:40:24;;;;;;;31.47;8.43;;;;;;;;;;5057739;28;20178;-72
2022/01/03 01:42:50;;;;;;;36.43;9.30;;;;;;;;;;5052552;28;20219;-72
2022/01/03 01:45:18;;;;;;;34.23;9.20;;;;;;;;;;5057441;28;20203;-71
2022/01/03 01:47:47;;;;;;;35.60;8.90;;;;;;;;;;5057048;28;20612;-71
2022/01/03 01:50:13;;;;;;;33.87;8.53;;;;;;;;;;5056612;28;21023;-72
2022/01/03 01:52:39;;;;;;;40.43;9.63;;;;;;;;;;5049772;28;20225;-71
2022/01/03 01:55:07;;;;;;;28.27;7.57;;;;;;;;;;5042791;28;20184;-71
2022/01/03 01:57:53;;;;;;;22.60;6.37;;;;;;;;;;5068615;28;20553;-71
2022/01/03 02:00:19;;;;;;;42.33;10.43;;;;;;;;;;5048883;28;20191;-72
2022/01/03 02:02:47;;;;;;;27.87;8.10;;;;;;;;;;5061804;28;20281;-71
2022/01/03 02:05:30;;;;;;;27.67;7.57;;;;;;;;;;5065583;28;20186;-71
2022/01/03 02:08:12;;;;;;;28.43;7.63;;;;;;;;;;5056781;28;20179;-71
2022/01/03 02:10:49;;;;;;;20.27;6.07;;;;;;;;;;5062951;28;20272;-72
2022/01/03 02:13:16;;;;;;;37.03;8.90;;;;;;;;;;5061855;28;20222;-72
2022/01/03 02:15:46;;;;;;;45.13;10.73;;;;;;;;;;5055758;28;20665;-72
2022/01/03 02:18:12;;;;;;;34.43;8.77;;;;;;;;;;5064787;28;20171;-72
2022/01/03 02:20:38;;;;;;;28.40;8.00;;;;;;;;;;5065114;28;20271;-72
2022/01/03 02:23:05;;;;;;;25.60;7.20;;;;;;;;;;5057781;28;20384;-71
2022/01/03 02:25:31;;;;;;;38.03;9.67;;;;;;;;;;5062016;28;20191;-72
2022/01/03 02:27:59;;;;;;;29.43;8.07;;;;;;;;;;5063402;28;20233;-71
2022/01/03 02:30:26;;;;;;;44.67;10.43;;;;;;;;;;5040054;28;20194;-72
2022/01/03 02:32:52;;;;;;;15.63;5.23;;;;;;;;;;5064926;28;20246;-72
2022/01/03 02:35:19;;;;;;;14.57;5.17;;;;;;;;;;5071011;28;20265;-71
2022/01/03 02:37:45;;;;;;;37.60;9.30;;;;;;;;;;5061363;28;20281;-72
2022/01/03 02:40:12;;;;;;;14.27;5.63;;;;;;;;;;5046234;28;20185;-71
2022/01/03 02:42:38;;;;;;;21.27;6.40;;;;;;;;;;5051197;28;20276;-72
2022/01/03 02:45:06;;;;;;;33.33;9.13;;;;;;;;;;5062774;28;20271;-72
2022/01/03 02:47:32;;;;;;;40.90;10.40;;;;;;;;;;5042888;28;20179;-71
2022/01/03 02:49:58;;;;;;;24.53;7.63;;;;;;;;;;5063570;28;20276;-71
2022/01/03 02:52:24;;;;;;;49.30;11.80;;;;;;;;;;5057653;28;20215;-72
2022/01/03 02:54:50;;;;;;;36.47;9.47;;;;;;;;;;5060637;28;20246;-71
2022/01/03 02:57:22;;;;;;;25.27;7.17;;;;;;;;;;5059189;28;20305;-71
2022/01/03 02:59:51;;;;;;;25.63;7.33;;;;;;;;;;5066221;28;20278;-71
2022/01/03 03:02:20;;;;;;;30.90;7.97;;;;;;;;;;5042477;28;20198;-72
2022/01/03 03:04:53;;;;;;;32.87;8.63;;;;;;;;;;5062225;28;20275;-71
2022/01/03 03:07:20;;;;;;;48.10;11.47;;;;;;;;;;5055934;28;20191;-71
2022/01/03 03:09:46;;;;;;;69.87;15.27;;;;;;;;;;5039598;28;20237;-71
2022/01/03 03:12:12;;;;;;;32.73;8.60;;;;;;;;;;5057153;28;22498;-71
2022/01/03 03:14:38;;;;;;;27.47;7.67;;;;;;;;;;5043509;28;20249;-71
2022/01/03 03:17:04;;;;;;;40.53;10.13;;;;;;;;;;5040452;28;20265;-71
2022/01/03 03:19:30;;;;;;;23.13;6.93;;;;;;;;;;5057901;28;20274;-72
2022/01/03 03:21:56;;;;;;;35.63;9.20;;;;;;;;;;5042767;28;20293;-72
2022/01/03 03:24:22;;;;;;;24.00;7.07;;;;;;;;;;5034838;28;20734;-71
2022/01/03 03:26:48;;;;;;;34.03;8.83;;;;;;;;;;5054264;28;20187;-71
2022/01/03 03:29:14;;;;;;;30.07;8.13;;;;;;;;;;5059963;28;20249;-72
2022/01/03 03:31:40;;;;;;;25.97;7.43;;;;;;;;;;5043708;28;20688;-71
2022/01/03 03:34:06;;;;;;;32.43;8.63;;;;;;;;;;5059011;28;20198;-71
2022/01/03 03:36:32;;;;;;;44.70;11.13;;;;;;;;;;5039612;28;20178;-72
2022/01/03 03:38:58;;;;;;;13.67;5.07;;;;;;;;;;5055729;28;20182;-71
2022/01/03 03:41:24;;;;;;;27.27;7.30;;;;;;;;;;5059050;28;20182;-71
2022/01/03 03:43:50;;;;;;;54.77;11.10;;;;;;;;;;5077464;22;20267;-50
2022/01/03 03:46:16;;;;;;;37.47;7.73;;;;;;;;;;5054825;28;21143;-51
2022/01/03 03:48:42;;;;;;;43.23;9.00;;;;;;;;;;5051568;28;20179;-51
2022/01/03 03:51:08;;;;;;;36.53;7.73;;;;;;;;;;5052739;28;20585;-51
2022/01/03 03:53:34;;;;;;;41.63;8.87;;;;;;;;;;5050775;28;20195;-51
2022/01/03 03:56:00;;;;;;;34.97;7.10;;;;;;;;;;5051914;28;20924;-51
2022/01/03 03:58:26;;;;;;;47.23;9.87;;;;;;;;;;5040721;28;20276;-51
2022/01/03 04:00:52;;;;;;;29.67;6.40;;;;;;;;;;5056343;28;20484;-51
2022/01/03 04:03:18;;;;;;;42.83;9.00;;;;;;;;;;5061016;28;20559;-51
2022/01/03 04:05:44;;;;;;;37.97;8.13;;;;;;;;;;5054210;28;20183;-51
2022/01/03 04:08:10;;;;;;;50.23;10.33;;;;;;;;;;5050978;28;20694;-51
2022/01/03 04:10:36;;;;;;;50.77;10.43;;;;;;;;;;5054424;28;20179;-52
2022/01/03 04:13:02;;;;;;;43.03;8.97;;;;;;;;;;5060130;28;20202;-51
2022/01/03 04:15:28;;;;;;;48.30;10.00;;;;;;;;;;5057159;28;20179;-52
2022/01/03 04:17:54;;;;;;;18.60;4.27;;;;;;;;;;5052072;28;20566;-52
2022/01/03 04:20:20;;;;;;;37.00;7.83;;;;;;;;;;5058402;28;20424;-52
2022/01/03 04:22:46;;;;;;;60.07;12.40;;;;;;;;;;5047775;28;20428;-51
2022/01/03 04:25:14;;;;;;;30.67;6.87;;;;;;;;;;5053122;28;20205;-51
2022/01/03 04:27:40;;;;;;;18.67;3.90;;;;;;;;;;5051688;28;20195;-51
2022/01/03 04:30:06;;;;;;;40.73;8.53;;;;;;;;;;5053631;28;20183;-51
2022/01/03 04:32:32;;;;;;;41.60;8.77;;;;;;;;;;5050306;28;20207;-52
2022/01/03 04:34:58;;;;;;;37.97;8.03;;;;;;;;;;5051045;28;20184;-51
2022/01/03 04:37:24;;;;;;;77.43;15.90;;;;;;;;;;5053538;28;20186;-52
2022/01/03 04:39:50;;;;;;;33.07;6.77;;;;;;;;;;5057359;28;20188;-51
2022/01/03 04:42:16;;;;;;;27.27;5.73;;;;;;;;;;5051882;28;20203;-51
2022/01/03 04:44:42;;;;;;;34.77;7.40;;;;;;;;;;5057959;28;20497;-51
2022/01/03 04:47:08;;;;;;;54.73;11.27;;;;;;;;;;5048562;28;20190;-51
2022/01/03 04:49:34;;;;;;;33.43;7.03;;;;;;;;;;5054339;28;20752;-51
2022/01/03 04:52:00;;;;;;;61.27;12.43;;;;;;;;;;5051897;28;20534;-51
2022/01/03 04:54:26;;;;;;;31.17;6.50;;;;;;;;;;5051796;28;20347;-51
2022/01/03 04:56:57;;;;;;;20.73;4.50;;;9.40;99.90;;;;;;5054709;28;20248;-51
2022/01/03 04:59:22;;;;;;;32.07;6.53;;;9.20;99.90;;;;;;5053285;28;20695;-51
2022/01/03 05:01:48;;;;;;;40.67;8.53;;;;;;;;;;5049493;28;20184;-52
2022/01/03 05:04:14;;;;;;;41.63;8.53;;;8.90;99.90;;;;;;5054145;28;20271;-52
2022/01/03 05:06:40;;;;;;;46.40;9.53;;;;;;;;;;5052864;28;20197;-51
2022/01/03 05:09:06;;;;;;;28.63;6.27;;;;;;;;;;5034815;28;20270;-51
2022/01/03 05:11:31;;;;;;;33.33;6.93;;;;;;;;;;5053566;28;20671;-51
2022/01/03 05:13:57;;;;;;;37.47;7.70;;;;;;;;;;5050138;28;20199;-52
2022/01/03 05:16:23;;;;;;;52.73;10.70;;;;;;;;;;5040472;28;20187;-51
2022/01/03 05:18:49;;;;;;;34.07;6.90;;;;;;;;;;5053986;28;20210;-51
2022/01/03 05:21:15;;;;;;;66.87;13.17;;;;;;;;;;5053545;28;20595;-51
2022/01/03 05:23:41;;;;;;;38.17;7.87;;;;;;;;;;5046560;28;20206;-51
2022/01/03 05:26:07;;;;;;;41.37;8.57;;;;;;;;;;5047862;28;20232;-51
2022/01/03 05:28:33;;;;;;;44.03;8.73;;;8.90;99.90;;;;;;5054966;28;20186;-52
2022/01/03 05:30:59;;;;;;;59.70;11.73;;;;;;;;;;5055519;28;20190;-51
2022/01/03 05:33:24;;;;;;;40.87;8.40;;;;;;;;;;5053322;28;20218;-51
2022/01/03 05:35:51;;;;;;;39.57;8.20;;;;;;;;;;5052352;28;20183;-50
2022/01/03 05:38:16;;;;;;;54.73;10.70;;;8.90;99.90;;;;;;5048728;28;20175;-51
2022/01/03 05:40:42;;;;;;;17.63;3.50;;;9.00;99.90;;;;;;5054287;28;20698;-49
2022/01/03 05:43:10;;;;;;;13.27;2.73;;;;;;;;;;5051326;28;20674;-48
2022/01/03 05:45:36;;;;;;;15.00;3.20;;;;;;;;;;5050939;28;20179;-48
2022/01/03 05:48:02;;;;;;;11.23;2.50;;;;;;;;;;5051367;28;20183;-49
2022/01/03 05:50:28;;;;;;;7.13;1.73;;;;;;;;;;5051393;28;20709;-49
2022/01/03 05:52:54;;;;;;;18.17;3.60;;;;;;;;;;5050755;28;20207;-48
2022/01/03 05:55:20;;;;;;;13.90;2.90;;;;;;;;;;5051056;28;20532;-48
2022/01/03 05:57:46;;;;;;;4.13;1.20;;;;;;;;;;5050798;28;20180;-49
2022/01/03 06:00:16;;;;;;;19.63;3.87;;;;;;;;;;5050922;28;20172;-49
2022/01/03 06:02:43;;;;;;;14.03;2.83;;;;;;;;;;5051058;28;20199;-48
2022/01/03 06:05:17;;;;;;;25.47;5.03;;;;;;;;;;5050263;28;20534;-49
2022/01/03 06:07:42;;;;;;;14.03;2.83;;;8.50;99.90;;;;;;5051147;28;20619;-49
2022/01/03 06:10:12;;;;;;;26.80;5.20;;;8.50;99.90;;;;;;5050610;28;20206;-49
2022/01/03 06:12:39;;;;;;;13.83;2.97;;;;;;;;;;5050789;28;20207;-48
2022/01/03 06:15:05;;;;;;;24.33;4.80;;;;;;;;;;5050441;28;20602;-48
2022/01/03 06:17:30;;;;;;;12.70;2.60;;;8.50;99.90;;;;;;5050703;28;20191;-48
2022/01/03 06:19:56;;;;;;;15.57;3.23;;;;;;;;;;5049486;28;20631;-48
2022/01/03 06:22:22;;;;;;;12.93;2.80;;;;;;;;;;5050781;28;20555;-49
2022/01/03 06:24:48;;;;;;;18.37;3.67;;;;;;;;;;5050002;28;20182;-48
2022/01/03 06:27:16;;;;;;;19.03;3.97;;;8.30;99.90;;;;;;5051072;28;20180;-49
2022/01/03 06:29:41;;;;;;;29.17;5.50;;;8.60;99.90;;;;;;5050192;28;20255;-49
2022/01/03 06:32:07;;;;;;;25.43;4.80;;;;;;;;;;5049045;28;20210;-49
2022/01/03 06:34:33;;;;;;;20.37;4.03;;;;;;;;;;5050396;28;20183;-49
2022/01/03 06:36:59;;;;;;;21.33;4.17;;;8.30;99.90;;;;;;5049964;28;20176;-49
2022/01/03 06:39:25;;;;;;;42.00;7.73;;;;;;;;;;5049811;28;20175;-49
2022/01/03 06:41:51;;;;;;;19.00;3.80;;;;;;;;;;5053164;28;20608;-49
2022/01/03 06:44:17;;;;;;;14.60;3.03;;;;;;;;;;5053597;28;20295;-49
2022/01/03 06:46:43;;;;;;;16.57;3.30;;;;;;;;;;5054569;28;20523;-49
2022/01/03 06:49:09;;;;;;;34.40;6.50;;;8.20;99.90;;;;;;5053984;28;20176;-49
2022/01/03 06:51:34;;;;;;;20.23;4.03;;;8.10;99.90;;;;;;5054032;28;20199;-49
2022/01/03 06:54:05;;;;;;;4.43;1.13;;;8.10;99.90;;;;;;5054262;28;20207;-49
2022/01/03 06:56:31;;;;;;;34.97;6.30;;;8.00;99.90;;;;;;5052414;28;20180;-49
2022/01/03 06:58:56;;;;;;;17.73;3.70;;;8.00;99.90;;;;;;5053739;28;20262;-48
2022/01/03 07:01:22;;;;;;;25.10;4.80;;;8.00;99.90;;;;;;5070530;28;20174;-47
2022/01/03 07:03:47;;;;;;;13.10;2.70;;;;;;;;;;5069900;28;20291;-48
2022/01/03 07:06:13;;;;;;;20.10;4.07;;;7.90;99.90;;;;;;5053258;28;20176;-48
2022/01/03 07:08:39;;;;;;;25.73;5.17;;;7.90;99.90;;;;;;5056572;28;20179;-47
2022/01/03 07:11:04;;;;;;;16.57;3.43;;;7.90;99.90;;;;;;5073173;28;20174;-47
2022/01/03 07:13:39;;;;;;;17.63;3.57;;;7.90;99.90;;;;;;5072507;28;20602;-48
2022/01/03 07:18:56;;;;;;;17.80;3.60;;;;;;;;;;5073312;28;20185;-48
2022/01/03 07:21:22;;;;;;;27.87;5.63;;;;;;;;;;5072406;28;20151;-48
2022/01/03 07:23:48;;;;;;;5.63;1.40;;;7.80;99.90;;;;;;5072857;28;20187;-49
2022/01/03 07:26:14;;;;;;;19.40;3.90;;;8.30;99.90;;;;;;5073353;28;20167;-49
2022/01/03 07:28:39;;;;;;;35.47;7.00;;;;;;;;;;5072162;28;20292;-47
2022/01/03 07:31:05;;;;;;;16.77;3.53;;;;;;;;;;5072476;28;20171;-48
2022/01/03 07:33:31;;;;;;;37.60;7.30;;;8.20;99.90;;;;;;5054064;28;20215;-49
2022/01/03 07:35:57;;;;;;;23.33;4.73;;;;;;;;;;5072226;28;20175;-49
2022/01/03 07:38:22;;;;;;;13.13;3.00;;;8.20;99.90;;;;;;5054989;28;20179;-48
2022/01/03 07:40:48;;;;;;;26.60;5.40;;;;;;;;;;5072996;28;20546;-48
2022/01/03 07:43:14;;;;;;;41.80;8.07;;;;;;;;;;5071401;28;20199;-49
2022/01/03 07:45:40;;;;;;;11.67;2.63;;;;;;;;;;5071477;28;20418;-50
2022/01/03 07:48:06;;;;;;;33.53;6.53;;;8.00;99.90;;;;;;5071359;28;20642;-52
2022/01/03 07:50:32;;;;;;;34.20;6.73;;;8.20;99.90;;;;;;5071882;28;20312;-50
2022/01/03 07:52:59;;;;;;;37.13;7.17;;;;;;;;;;5071586;28;20583;-50
2022/01/03 07:55:26;;;;;;;33.27;6.67;;;;;;;;;;5071575;28;20175;-49
2022/01/03 07:57:52;;;;;;;32.10;6.40;;;;;;;;;;5072125;28;20175;-49
2022/01/03 08:00:18;;;;;;;21.87;4.47;;;8.40;99.90;;;;;;5071376;28;20261;-49
2022/01/03 08:02:44;;;;;;;29.67;6.07;;;8.20;99.90;;;;;;5070495;28;20213;-48
2022/01/03 08:05:13;;;;;;;30.63;6.00;;;8.00;99.90;;;;;;5071667;28;20215;-49
2022/01/03 08:07:39;;;;;;;21.63;4.50;;;8.40;99.90;;;;;;5071536;28;20534;-49
2022/01/03 08:10:06;;;;;;;27.03;5.47;;;8.20;99.90;;;;;;5072104;28;20175;-48
2022/01/03 08:12:32;;;;;;;38.83;7.53;;;7.00;99.90;;;;;;5071476;28;20297;-48
2022/01/03 08:14:58;;;;;;;28.60;5.83;;;;;;;;;;5070328;28;20326;-48
2022/01/03 08:17:24;;;;;;;19.13;4.00;;;;;;;;;;5071516;28;20197;-48
2022/01/03 08:19:50;;;;;;;20.70;4.20;;;;;;;;;;5071380;28;20182;-49
2022/01/03 08:22:17;;;;;;;24.87;5.03;;;;;;;;;;5071662;28;20263;-49
2022/01/03 08:24:43;;;;;;;32.00;6.43;;;;;;;;;;5071102;28;20186;-48
2022/01/03 08:27:09;;;;;;;32.60;6.50;;;;;;;;;;5071085;28;20186;-47
2022/01/03 08:29:35;;;;;;;29.20;5.90;;;;;;;;;;5071306;28;20619;-48
2022/01/03 08:32:01;;;;;;;32.57;6.50;;;;;;;;;;5070811;28;20200;-49
2022/01/03 08:34:27;;;;;;;24.23;5.07;;;;;;;;;;5071093;28;20176;-48
2022/01/03 08:36:53;;;;;;;27.17;5.57;;;;;;;;;;5071205;28;20167;-48
2022/01/03 08:39:19;;;;;;;30.63;6.27;;;8.70;99.90;;;;;;5070620;28;20181;-48
2022/01/03 08:41:45;;;;;;;32.47;6.50;;;;;;;;;;5071200;28;20171;-48
2022/01/03 08:44:11;;;;;;;29.17;5.57;;;;;;;;;;5070583;28;20190;-48
2022/01/03 08:46:37;;;;;;;20.50;4.20;;;;;;;;;;5070923;28;20209;-48
2022/01/03 08:49:03;;;;;;;17.13;3.53;;;;;;;;;;5071197;28;20587;-49
2022/01/03 08:51:28;;;;;;;31.63;6.27;;;8.60;99.90;;;;;;5070572;28;20206;-49
2022/01/03 08:53:54;;;;;;;29.13;5.87;;;;;;;;;;5070093;28;20197;-47
2022/01/03 08:56:21;;;;;;;24.13;5.00;;;;;;;;;;5070969;28;20175;-49
2022/01/03 08:58:47;;;;;;;36.63;7.30;;;;;;;;;;5070464;28;20183;-48
2022/01/03 09:01:13;;;;;;;31.50;6.40;;;;;;;;;;5070741;28;20182;-49
2022/01/03 09:03:39;;;;;;;25.80;5.37;;;;;;;;;;5069786;28;20191;-48
2022/01/03 09:06:05;;;;;;;28.10;5.87;;;;;;;;;;5070128;28;20647;-48
2022/01/03 09:08:30;;;;;;;25.67;5.27;;;8.50;99.90;;;;;;5070441;28;20190;-49
2022/01/03 09:10:56;;;;;;;38.30;7.87;;;8.80;99.90;;;;;;5060101;28;20252;-48
2022/01/03 09:13:22;;;;;;;49.10;10.20;;;;;;;;;;5061842;28;20695;-48
2022/01/03 09:15:48;;;;;;;29.63;6.13;;;8.80;99.90;;;;;;5056343;28;20195;-49
2022/01/03 09:18:16;;;;;;;39.93;7.97;;;8.70;99.90;;;;;;5050242;28;20179;-49
2022/01/03 09:20:42;;;;;;;30.23;6.13;;;;;;;;;;5050049;28;20164;-48
2022/01/03 09:23:14;;;;;;;28.73;6.00;;;;;;;;;;5050410;28;20204;-48
2022/01/03 09:30:51;;;;;;;35.63;7.07;;;6.70;99.90;;;;;;5070152;28;20277;-48
2022/01/03 09:33:17;;;;;;;30.10;6.13;;;8.70;99.90;;;;;;5070359;28;20222;-48
2022/01/03 09:35:43;;;;;;;21.13;4.40;;;8.40;99.90;;;;;;5070597;28;20170;-48
2022/01/03 09:38:09;;;;;;;34.27;6.87;;;;;;;;;;5070066;28;20224;-48
2022/01/03 09:40:40;;;;;;;96.93;19.67;;;8.60;99.90;;;;;;5045444;28;20206;-52
2022/01/03 09:43:11;;;;;;;151.57;29.60;;;8.70;99.90;;;;;;5018844;28;20221;-51
2022/01/03 09:45:37;;;;;;;97.30;17.60;;;;;;;;;;5039544;22;20695;-67
2022/01/03 09:48:04;;;;;;;108.50;19.37;;;8.70;99.90;;;;;;5012732;28;20187;-65
2022/01/03 09:50:33;;;;;;;80.67;14.43;;;8.70;99.90;;;;;;5012860;28;20190;-66
2022/01/03 09:53:04;;;;;;;78.50;14.37;;;8.60;99.90;;;;;;5015772;28;20317;-65
2022/01/03 09:55:31;;;;;;;92.23;16.53;;;8.80;99.90;;;;;;5014525;28;20199;-65
2022/01/03 09:57:57;;;;;;;53.63;10.13;;;;;;;;;;5023525;28;20183;-65
2022/01/03 10:00:23;;;;;;;96.83;17.67;;;;;;;;;;5021807;28;20277;-66
2022/01/03 10:02:51;;;;;;;74.63;13.97;;;8.80;99.90;;;;;;5012591;28;20302;-67
2022/01/03 10:05:17;;;;;;;63.60;11.77;;;8.80;99.90;;;;;;5015839;28;20208;-64
2022/01/03 10:07:43;;;;;;;142.47;24.93;;;;;;;;;;5018481;28;20215;-64
2022/01/03 10:10:10;;;;;;;97.63;16.77;;;9.50;99.90;;;;;;5022472;28;22055;-64
2022/01/03 10:12:37;;;;;;;101.97;17.10;;;9.00;99.90;;;;;;5017522;28;20215;-64
2022/01/03 10:15:05;;;;;;;120.47;20.03;;;9.10;99.90;;;;;;5015635;28;20207;-64
2022/01/03 10:17:39;;;;;;;60.33;11.07;;;8.90;99.90;;;;;;5033804;28;21220;-64
2022/01/03 10:20:10;;;;;;;57.27;10.63;;;8.90;99.90;;;;;;5035241;28;20193;-64
2022/01/03 10:22:36;;;;;;;54.30;10.10;;;;;;;;;;5034626;28;20187;-64
2022/01/03 10:25:21;;;;;;;79.63;14.47;;;8.90;99.90;;;;;;5028849;28;20215;-64
2022/01/03 10:27:53;;;;;;;76.67;13.83;;;8.90;99.90;;;;;;5032292;28;20184;-63
2022/01/03 10:30:43;;;;;;;74.80;13.83;;;8.90;99.90;;;;;;5018733;28;20196;-65
2022/01/03 10:33:13;;;;;;;77.27;13.87;;;8.80;99.90;;;;;;5022327;28;20344;-64
2022/01/03 10:35:45;;;;;;;63.87;11.77;;;8.90;99.90;;;;;;5024021;28;20290;-64
2022/01/03 10:38:35;;;;;;;73.27;13.20;;;8.90;99.90;;;;;;5023769;28;20237;-64
2022/01/03 10:41:14;;;;;;;84.10;15.10;;;9.10;99.90;;;;;;5025805;28;20179;-64
2022/01/03 10:43:40;;;;;;;82.27;15.00;;;;;;;;;;5021411;28;20205;-64
2022/01/03 10:46:30;;;;;;;102.17;18.20;;;9.00;99.90;;;;;;5021897;28;20208;-64
2022/01/03 10:49:15;;;;;;;48.80;9.03;;;9.00;99.90;;;;;;5023219;28;20725;-64
2022/01/03 10:51:41;;;;;;;72.47;13.13;;;;;;;;;;5026818;28;20195;-67
2022/01/03 10:54:16;;;;;;;155.17;26.50;;;9.10;99.90;;;;;;5005389;28;20207;-66
2022/01/03 10:56:48;;;;;;;87.77;15.37;;;9.10;99.90;;;;;;5018601;28;20182;-64
2022/01/03 10:59:14;;;;;;;92.97;16.47;;;;;;;;;;5017167;28;20184;-63
2022/01/03 11:01:41;;;;;;;67.17;12.30;;;9.10;99.90;;;;;;5019229;28;21143;-64
2022/01/03 11:04:08;;;;;;;61.47;11.30;;;;;;;;;;5020866;28;20290;-64
2022/01/03 11:11:47;;;;;;;47.43;9.10;;;9.30;99.90;;;;;;5031576;28;20361;-66
2022/01/03 11:14:39;;;;;;;40.90;7.97;;;9.30;99.90;;;;;;5031185;28;21421;-65
2022/01/03 11:17:25;;;;;;;28.90;5.83;;;9.30;99.90;;;;;;5026668;28;20266;-67
2022/01/03 11:19:51;;;;;;;50.90;9.93;;;;;;;;;;5041791;28;20202;-65
2022/01/03 11:22:36;;;;;;;38.13;7.53;;;9.40;99.90;;;;;;5036148;28;20653;-67
2022/01/03 11:25:02;;;;;;;37.70;7.47;;;9.40;99.90;;;;;;5040081;28;20298;-65
2022/01/03 11:27:28;;;;;;;36.77;7.20;;;;;;;;;;5034720;28;20951;-65
2022/01/03 11:29:54;;;;;;;43.37;8.20;;;;;;;;;;5030636;28;20618;-65
2022/01/03 11:32:21;;;;;;;43.60;8.33;;;9.40;99.90;;;;;;5038604;28;20294;-66
2022/01/03 11:34:47;;;;;;;94.17;17.20;;;;;;;;;;5034941;28;20242;-65
2022/01/03 11:37:13;;;;;;;54.83;10.43;;;;;;;;;;5032615;28;21554;-67
2022/01/03 11:39:39;;;;;;;47.47;9.30;;;;;;;;;;5034385;28;20190;-65
2022/01/03 11:42:06;;;;;;;72.50;13.40;;;9.60;99.90;;;;;;5035901;28;20180;-65
2022/01/03 11:44:32;;;;;;;31.90;6.53;;;;;;;;;;5037527;28;20212;-65
2022/01/03 11:46:58;;;;;;;44.67;8.80;;;9.90;99.90;;;;;;5051028;28;20586;-64
2022/01/03 11:49:25;;;;;;;41.37;8.27;;;;;;;;;;5032070;28;20192;-67
2022/01/03 11:51:51;;;;;;;38.10;7.57;;;9.90;99.90;;;;;;5025027;28;20210;-64
2022/01/03 11:54:19;;;;;;;38.70;7.67;;;9.90;99.90;;;;;;5029545;28;20200;-65
2022/01/03 11:56:50;;;;;;;61.97;11.73;;;9.90;99.90;;;;;;5040036;28;20265;-64
2022/01/03 12:04:35;;;;;;;51.70;9.67;;;9.90;99.90;;;;;;5033498;28;20223;-64
2022/01/03 12:07:05;;;;;;;70.57;13.17;;;10.00;99.90;;;;;;5028740;28;20185;-64
2022/01/03 12:09:33;;;;;;;32.97;6.67;;;10.00;99.90;;;;;;5035379;28;20722;-64
2022/01/03 12:11:59;;;;;;;23.77;4.90;;;;;;;;;;5039763;28;20211;-64
2022/01/03 12:14:43;;;;;;;52.27;10.07;;;10.20;99.90;;;;;;5031461;28;20192;-64
2022/01/03 12:17:10;;;;;;;25.00;5.10;;;10.20;99.90;;;;;;5041883;28;20176;-65
2022/01/03 12:19:36;;;;;;;26.70;5.50;;;;;;;;;;5037528;28;20184;-65
2022/01/03 12:22:12;;;;;;;43.17;8.37;;;10.10;99.90;;;;;;5039593;28;20180;-67
2022/01/03 12:24:46;;;;;;;42.03;8.17;;;10.30;99.90;;;;;;5039334;28;20714;-65
2022/01/03 12:27:16;;;;;;;41.20;7.73;;;10.20;99.90;;;;;;5034763;28;20201;-65
2022/01/03 12:29:54;;;;;;;57.47;11.03;;;10.10;99.90;;;;;;5032828;28;20191;-64
2022/01/03 12:32:26;;;;;;;60.37;11.37;;;10.10;99.90;;;;;;5031852;28;20218;-65
2022/01/03 12:35:10;;;;;;;32.80;6.67;;;10.00;99.90;;;;;;5030900;28;20227;-65
2022/01/03 12:37:37;;;;;;;40.67;7.93;;;10.00;99.90;;;;;;5029443;28;20295;-65
2022/01/03 12:40:04;;;;;;;39.73;8.07;;;;;;;;;;5027719;28;20192;-65
2022/01/03 12:42:48;;;;;;;76.53;14.30;;;8.70;99.90;;;;;;5031146;28;20238;-65
2022/01/03 12:45:28;;;;;;;27.07;5.60;;;10.20;99.90;;;;;;5037913;28;20211;-65
2022/01/03 12:50:46;;;;;;;40.97;8.17;;;8.70;99.90;;;;;;5031916;28;20199;-65
2022/01/03 12:53:31;;;;;;;48.73;9.43;;;10.40;99.90;;;;;;5033378;28;20220;-65
2022/01/03 12:56:19;;;;;;;48.87;9.60;;;10.70;99.90;;;;;;5030548;28;20187;-66
2022/01/03 12:58:48;;;;;;;43.83;8.87;;;10.90;99.90;;;;;;5034119;28;20183;-65
2022/01/03 13:01:14;;;;;;;53.60;10.47;;;;;;;;;;5030015;28;20195;-66
2022/01/03 13:03:43;;;;;;;30.17;6.43;;;11.10;99.90;;;;;;5033817;28;20192;-65
2022/01/03 13:06:20;;;;;;;50.43;10.30;;;11.30;99.90;;;;;;5036297;28;20183;-65
2022/01/03 13:08:52;;;;;;;31.70;6.70;;;11.80;99.90;;;;;;5033323;28;20680;-68
2022/01/03 13:11:37;;;;;;;52.20;10.77;;;12.10;99.90;;;;;;5032008;28;20180;-68
2022/01/03 13:14:23;;;;;;;42.57;8.73;;;12.10;99.90;;;;;;5032612;28;20207;-67
2022/01/03 13:16:55;;;;;;;91.60;18.43;;;12.10;99.90;;;;;;5027343;28;20195;-65
2022/01/03 13:19:25;;;;;;;36.77;7.83;;;12.40;99.90;;;;;;5033510;28;20262;-67
2022/01/03 13:21:56;;;;;;;32.67;6.93;;;11.70;99.90;;;;;;5035806;28;20183;-65
2022/01/03 13:24:36;;;;;;;41.10;8.60;;;11.40;99.90;;;;;;5030786;28;20198;-67
2022/01/03 13:27:02;;;;;;;54.27;11.00;;;;;;;;;;5032373;28;20180;-67
2022/01/03 13:29:31;;;;;;;37.47;7.63;;;11.00;99.90;;;;;;5032373;28;20955;-66
2022/01/03 13:31:57;;;;;;;38.07;7.87;;;10.90;99.90;;;;;;5030837;28;20215;-67
2022/01/03 13:34:26;;;;;;;39.03;7.83;;;10.80;99.90;;;;;;5036975;28;20207;-66
2022/01/03 13:36:52;;;;;;;33.47;6.73;;;;;;;;;;5034509;28;20276;-66
2022/01/03 13:39:23;;;;;;;20.80;4.47;;;10.40;99.90;;;;;;5031770;28;20271;-66
2022/01/03 13:41:53;;;;;;;38.70;7.53;;;10.30;99.90;;;;;;5033002;28;20200;-66
2022/01/03 13:44:46;;;;;;;54.97;10.57;;;10.20;99.90;;;;;;5029826;28;20250;-66
2022/01/03 13:50:06;;;;;;;40.40;8.03;;;10.20;99.90;;;;;;5031672;28;20184;-67
2022/01/03 13:52:40;;;;;;;39.80;7.87;;;10.20;99.90;;;;;;5033285;28;20706;-67
2022/01/03 13:55:17;;;;;;;69.27;12.77;;;10.20;99.90;;;;;;5034386;28;20198;-66
2022/01/03 13:57:47;;;;;;;47.33;9.17;;;10.10;99.90;;;;;;5029821;28;20194;-67
2022/01/03 14:00:17;;;;;;;20.83;4.50;;;;;;;;;;5035051;28;20183;-66
2022/01/03 14:02:43;;;;;;;60.10;11.17;;;;;;;;;;5037697;28;20191;-67
2022/01/03 14:05:10;;;;;;;55.10;10.43;;;10.00;99.90;;;;;;5026706;28;20265;-67
2022/01/03 14:07:36;;;;;;;47.53;9.10;;;;;;;;;;5034796;28;20238;-67
2022/01/03 14:10:02;;;;;;;26.77;5.33;;;;;;;;;;5030012;28;20645;-67
2022/01/03 14:12:31;;;;;;;66.97;12.53;;;10.00;99.90;;;;;;5043026;28;20207;-67
2022/01/03 14:15:05;;;;;;;51.13;9.70;;;9.90;99.90;;;;;;5031436;28;20204;-68
2022/01/03 14:17:31;;;;;;;54.07;10.17;;;;;;;;;;5048122;28;20529;-67
2022/01/03 14:20:07;;;;;;;24.83;5.10;;;9.90;99.90;;;;;;5034608;28;20246;-67